Time;durP1;ratioP1;P1;durP2;ratioP2;P2;SDS_P1;SDS_P2;PMS_P1;PMS_P2;Temp;Humidity;BMP_temperature;BMP_pressure;BME280_temperature;BME280_humidity;BME280_pressure;Samples;Min_cycle;Max_cycle;Signal;HPM_P1;HPM_P2
2023/05/27 00:00:46;;;;;;;55.70;10.80;;;;;;;;;;5032181;28;20502;-68
2023/05/27 00:03:13;;;;;;;41.10;8.88;;;;;;;;;;5015068;28;20045;-69
2023/05/27 00:05:40;;;;;;;68.65;11.20;;;;;;;;;;5030958;28;20042;-69
2023/05/27 00:08:07;;;;;;;52.00;10.07;;;;;;;;;;5012761;28;20501;-68
2023/05/27 00:10:33;;;;;;;58.00;11.05;;;;;;;;;;5031517;28;20095;-67
2023/05/27 00:13:00;;;;;;;35.17;9.32;;;;;;;;;;5028273;28;20052;-67
2023/05/27 00:15:27;;;;;;;79.63;13.15;;;;;;;;;;5010993;28;20107;-69
2023/05/27 00:17:54;;;;;;;35.90;8.60;;;;;;;;;;5029945;28;20107;-67
2023/05/27 00:20:21;;;;;;;55.03;10.93;;;;;;;;;;5011282;28;20062;-68
2023/05/27 00:22:49;;;;;;;55.42;10.57;;;;;;;;;;5023555;28;20429;-67
2023/05/27 00:25:20;;;;;;;54.47;9.27;;;;;;;;;;5012763;28;20085;-68
2023/05/27 00:27:47;;;;;;;42.08;8.63;;;;;;;;;;5031600;28;20029;-67
2023/05/27 00:30:14;;;;;;;66.72;11.13;;;;;;;;;;5033454;28;20041;-68
2023/05/27 00:32:42;;;;;;;52.45;9.77;;;;;;;;;;5031060;28;20042;-66
2023/05/27 00:35:09;;;;;;;54.65;10.05;;;;;;;;;;5012906;28;20415;-67
2023/05/27 00:37:36;;;;;;;52.97;10.95;;;;;;;;;;5031162;28;20045;-69
2023/05/27 00:40:04;;;;;;;48.80;10.15;;;;;;;;;;5030935;28;20088;-67
2023/05/27 00:42:31;;;;;;;79.88;12.10;;;;;;;;;;5007182;28;20046;-69
2023/05/27 00:44:58;;;;;;;53.03;9.90;;;;;;;;;;5009276;28;20046;-68
2023/05/27 00:47:26;;;;;;;43.17;10.88;;;;;;;;;;5030576;28;20076;-67
2023/05/27 00:49:53;;;;;;;50.13;11.27;;;;;;;;;;5031136;28;20472;-68
2023/05/27 00:52:19;;;;;;;44.45;9.70;;;;;;;;;;5031742;28;20068;-69
2023/05/27 00:54:46;;;;;;;66.70;10.73;;;;;;;;;;5031343;28;20080;-68
2023/05/27 00:57:13;;;;;;;70.05;10.60;;;;;;;;;;5032815;28;20450;-67
2023/05/27 00:59:40;;;;;;;45.13;9.95;;;;;;;;;;5030274;28;20052;-70
2023/05/27 01:02:06;;;;;;;36.28;8.13;;;;;;;;;;5031088;28;20057;-68
2023/05/27 01:04:33;;;;;;;50.30;10.50;;;;;;;;;;5010182;28;20049;-68
2023/05/27 01:07:10;;;;;;;47.05;9.40;;;;;;;;;;5024887;28;20037;-68
2023/05/27 01:09:43;;;;;;;45.42;10.02;;;;;;;;;;5030945;28;20053;-67
2023/05/27 01:12:16;;;;;;;38.63;8.70;;;;;;;;;;5025417;28;20056;-67
2023/05/27 01:14:43;;;;;;;46.22;8.52;;;;;;;;;;5009591;28;20045;-70
2023/05/27 01:17:11;;;;;;;55.88;8.90;;;;;;;;;;5026836;28;20127;-66
2023/05/27 01:19:45;;;;;;;68.93;11.18;;;;;;;;;;5008414;28;20046;-66
2023/05/27 01:22:15;;;;;;;50.45;9.23;;;;;;;;;;5026874;28;20087;-67
2023/05/27 01:24:42;;;;;;;69.60;9.88;;;;;;;;;;5001148;28;20049;-68
2023/05/27 01:27:11;;;;;;;42.05;7.93;;;;;;;;;;5032172;28;20095;-67
2023/05/27 01:29:40;;;;;;;60.03;8.65;;;;;;;;;;5015926;28;20061;-67
2023/05/27 01:32:11;;;;;;;41.67;7.63;;;;;;;;;;5002247;28;20066;-68
2023/05/27 01:34:45;;;;;;;48.70;7.47;;;;;;;;;;5009183;28;20046;-67
2023/05/27 01:37:12;;;;;;;;;;;;;;;;;;5025166;28;20077;-68
2023/05/27 01:39:39;;;;;;;65.75;9.30;;;;;;;;;;5016062;28;19929;-68
2023/05/27 01:42:06;;;;;;;45.60;8.50;;;;;;;;;;5031828;28;20406;-68
2023/05/27 01:44:33;;;;;;;26.63;6.15;;;;;;;;;;5011846;28;20046;-67
2023/05/27 01:47:01;;;;;;;40.28;6.93;;;;;;;;;;5026732;28;20439;-67
2023/05/27 01:49:29;;;;;;;46.45;7.20;;;;;;;;;;5030348;28;20112;-69
2023/05/27 01:51:56;;;;;;;69.07;8.82;;;;;;;;;;5009251;28;20104;-69
2023/05/27 01:54:22;;;;;;;59.05;7.35;;;;;;;;;;5030935;28;20041;-69
2023/05/27 01:56:49;;;;;;;47.70;8.30;;;;;;;;;;5010057;28;20045;-68
2023/05/27 01:59:16;;;;;;;29.20;5.72;;;;;;;;;;5006470;28;20046;-69
2023/05/27 02:01:42;;;;;;;86.15;11.25;;;;;;;;;;4967621;23;20054;-68
2023/05/27 02:04:09;;;;;;;62.92;8.27;;;;;;;;;;4967814;28;20055;-69
2023/05/27 02:06:36;;;;;;;90.90;11.02;;;;;;;;;;4964723;28;20039;-72
2023/05/27 02:09:04;;;;;;;42.25;6.88;;;;;;;;;;4968342;28;20123;-70
2023/05/27 02:11:30;;;;;;;33.70;5.60;;;;;;;;;;4944701;28;20071;-67
2023/05/27 02:13:57;;;;;;;63.53;9.82;;;;;;;;;;4965918;28;20035;-68
2023/05/27 02:16:24;;;;;;;80.50;10.93;;;;;;;;;;4962692;28;20134;-73
2023/05/27 02:18:52;;;;;;;61.63;9.15;;;;;;;;;;4951908;28;20038;-74
2023/05/27 02:21:18;;;;;;;42.28;7.15;;;;;;;;;;4966407;28;20057;-79
2023/05/27 02:23:45;;;;;;;49.60;8.80;;;;;;;;;;4966535;28;20117;-67
2023/05/27 02:26:11;;;;;;;42.45;6.88;;;;;;;;;;4966561;28;20061;-68
2023/05/27 02:28:38;;;;;;;51.15;9.32;;;;;;;;;;4967274;28;20431;-73
2023/05/27 02:31:05;;;;;;;87.95;10.43;;;;;;;;;;4954813;28;20701;-68
2023/05/27 02:33:31;;;;;;;93.75;11.60;;;;;;;;;;4970023;28;20551;-68
2023/05/27 02:35:58;;;;;;;51.38;8.10;;;;;;;;;;4974902;28;20642;-68
2023/05/27 02:38:25;;;;;;;56.47;8.73;;;;;;;;;;4969002;28;20051;-73
2023/05/27 02:40:52;;;;;;;75.10;8.88;;;;;;;;;;4957025;28;20129;-68
2023/05/27 02:43:20;;;;;;;49.30;7.03;;;;;;;;;;4967967;28;20717;-68
2023/05/27 02:45:47;;;;;;;67.22;9.70;;;;;;;;;;4969840;28;20055;-68
2023/05/27 02:48:13;;;;;;;39.97;7.20;;;;;;;;;;4971005;28;20051;-70
2023/05/27 02:50:40;;;;;;;36.10;6.68;;;;;;;;;;4970570;28;20054;-72
2023/05/27 02:53:06;;;;;;;60.55;9.18;;;;;;;;;;4972474;28;20038;-68
2023/05/27 02:55:33;;;;;;;46.85;7.30;;;;;;;;;;4949647;28;20105;-67
2023/05/27 02:58:00;;;;;;;35.15;6.88;;;;;;;;;;4964605;28;20082;-68
2023/05/27 03:00:27;;;;;;;86.55;11.13;;;;;;;;;;4968335;28;20062;-68
2023/05/27 03:02:53;;;;;;;38.25;6.78;;;;;;;;;;4987408;28;20054;-68
2023/05/27 03:05:20;;;;;;;35.92;6.30;;;;;;;;;;4966253;28;20062;-69
2023/05/27 03:07:48;;;;;;;39.35;6.53;;;;;;;;;;4969160;28;20526;-68
2023/05/27 03:10:15;;;;;;;52.28;7.85;;;;;;;;;;4969025;28;20050;-72
2023/05/27 03:12:42;;;;;;;47.03;6.75;;;;;;;;;;4968710;28;20057;-74
2023/05/27 03:15:09;;;;;;;56.08;7.65;;;;;;;;;;4977680;28;20100;-68
2023/05/27 03:17:36;;;;;;;76.95;10.27;;;;;;;;;;4968262;28;20077;-78
2023/05/27 03:20:05;;;;;;;47.03;7.20;;;;;;;;;;4976482;28;20068;-70
2023/05/27 03:22:32;;;;;;;50.95;7.47;;;;;;;;;;4975471;28;20093;-68
2023/05/27 03:24:59;;;;;;;56.90;7.25;;;;;;;;;;4976647;28;20042;-73
2023/05/27 03:27:26;;;;;;;55.22;8.15;;;;;;;;;;4977253;28;20150;-74
2023/05/27 03:29:53;;;;;;;49.33;7.32;;;;;;;;;;4961024;28;20046;-68
2023/05/27 03:32:20;;;;;;;48.47;7.45;;;;;;;;;;4975339;28;20046;-68
2023/05/27 03:34:48;;;;;;;36.25;7.85;;;;;;;;;;4990740;28;20064;-67
2023/05/27 03:37:16;;;;;;;39.15;8.23;;;;;;;;;;4970336;28;20456;-68
2023/05/27 03:40:03;;;;;;;71.07;10.07;;;;;;;;;;4989889;28;20126;-67
2023/05/27 03:42:31;;;;;;;89.32;12.65;;;;;;;;;;4979175;28;20754;-69
2023/05/27 03:44:58;;;;;;;434.67;44.78;;;;;;;;;;5073534;23;21077;-71
2023/05/27 03:47:26;;;;;;;68.70;10.05;;;;;;;;;;4967756;28;20062;-66
2023/05/27 03:49:53;;;;;;;88.05;11.15;;;;;;;;;;4961261;28;20102;-66
2023/05/27 03:52:20;;;;;;;52.30;8.35;;;;;;;;;;4981455;28;20562;-67
2023/05/27 03:54:46;;;;;;;48.75;8.57;;;;;;;;;;4974997;28;20060;-69
2023/05/27 03:57:13;;;;;;;63.95;9.13;;;;;;;;;;4984914;28;20039;-68
2023/05/27 03:59:40;;;;;;;45.22;9.90;;;;;;;;;;4975146;28;20129;-66
2023/05/27 04:02:07;;;;;;;47.88;9.23;;;;;;;;;;4956848;28;20419;-75
2023/05/27 04:04:33;;;;;;;53.90;10.02;;;;;;;;;;4974167;28;20043;-66
2023/05/27 04:07:01;;;;;;;60.67;22.33;;;;;;;;;;4972475;28;20115;-67
2023/05/27 04:09:27;;;;;;;89.93;67.20;;;;;;;;;;4973038;28;20097;-74
2023/05/27 04:11:54;;;;;;;93.85;67.05;;;;;;;;;;4974291;28;20055;-67
2023/05/27 04:14:22;;;;;;;100.63;90.55;;;;;;;;;;4975301;28;20093;-66
2023/05/27 04:16:49;;;;;;;95.97;83.22;;;;;;;;;;4973905;28;20479;-67
2023/05/27 04:19:18;;;;;;;88.18;78.95;;;;;;;;;;4974271;28;20118;-66
2023/05/27 04:21:46;;;;;;;134.65;120.88;;;;;;;;;;4980527;28;20054;-66
2023/05/27 04:24:13;;;;;;;157.68;138.57;;;;;;;;;;4974242;28;20359;-68
2023/05/27 04:26:40;;;;;;;205.25;187.60;;;;;;;;;;4974013;28;20080;-66
2023/05/27 04:29:11;;;;;;;186.90;172.52;;;;;;;;;;4972587;28;20566;-69
2023/05/27 04:31:39;;;;;;;166.70;151.50;;;;;;;;;;4953548;28;20135;-66
2023/05/27 04:34:11;;;;;;;176.55;159.98;;;;;;;;;;4963742;28;20093;-66
2023/05/27 04:36:40;;;;;;;189.63;171.20;;;;;;;;;;4972736;28;20133;-66
2023/05/27 04:39:11;;;;;;;159.52;134.20;;;;;;;;;;4971635;28;20052;-66
2023/05/27 04:41:41;;;;;;;131.20;120.13;;;;;;;;;;4973684;28;20050;-70
2023/05/27 04:44:08;;;;;;;121.05;107.45;;;;;;;;;;4973221;28;20066;-71
2023/05/27 04:46:40;;;;;;;118.32;106.00;;;;;;;;;;4956616;28;20054;-69
2023/05/27 04:49:08;;;;;;;105.97;94.57;;;;;;;;;;4973729;28;20110;-73
2023/05/27 04:51:36;;;;;;;114.07;101.13;;;;;;;;;;4972277;28;20400;-68
2023/05/27 04:54:03;;;;;;;144.63;117.57;;;;;;;;;;4971520;28;20697;-67
2023/05/27 04:56:31;;;;;;;126.18;112.47;;;;;;;;;;4983654;28;20046;-70
2023/05/27 04:58:58;;;;;;;128.77;111.53;;;;;;;;;;4958402;28;20126;-67
2023/05/27 05:01:39;;;;;;;113.03;102.15;;;;;;;;;;4972128;28;20051;-67
2023/05/27 05:04:14;;;;;;;129.15;117.07;;;;;;;;;;4975217;28;20038;-72
2023/05/27 05:06:52;;;;;;;120.47;108.03;;;;;;;;;;4955990;28;20051;-68
2023/05/27 05:09:21;;;;;;;124.38;111.80;;;;;;;;;;4971884;28;20400;-67
2023/05/27 05:11:49;;;;;;;122.00;108.75;;;;;;;;;;4969566;28;20521;-66
2023/05/27 05:14:16;;;;;;;163.32;150.13;;;;;;;;;;4971928;28;20051;-67
2023/05/27 05:16:43;;;;;;;157.40;143.73;;;;;;;;;;4971541;28;20050;-69
2023/05/27 05:19:12;;;;;;;179.68;125.88;;;;;;;;;;4974482;28;20042;-72
2023/05/27 05:21:40;;;;;;;165.85;126.40;;;;;;;;;;4975839;28;20684;-67
2023/05/27 05:24:10;;;;;;;196.95;159.77;;;;;;;;;;4972435;28;20531;-69
2023/05/27 05:26:38;;;;;;;218.10;202.07;;;;;;;;;;4972844;28;20704;-67
2023/05/27 05:29:05;;;;;;;228.15;211.85;;;;;;;;;;4968136;28;20759;-68
2023/05/27 05:31:33;;;;;;;238.95;214.85;;;;;;;;;;4979051;28;20132;-70
2023/05/27 05:34:02;;;;;;;216.82;198.95;;;;;;;;;;4958653;28;20117;-70
2023/05/27 05:36:32;;;;;;;210.73;194.25;;;;;;;;;;4974358;28;20057;-63
2023/05/27 05:39:04;;;;;;;232.82;207.95;;;;;;;;;;4971821;28;20129;-67
2023/05/27 05:41:32;;;;;;;200.23;183.68;;;;;;;;;;4974926;28;20039;-69
2023/05/27 05:43:59;;;;;;;177.18;163.40;;;;;;;;;;4957505;28;20483;-70
2023/05/27 05:46:26;;;;;;;183.45;168.93;;;;;;;;;;4974401;28;20101;-68
2023/05/27 05:48:53;;;;;;;172.13;158.70;;;;;;;;;;4975372;28;20058;-71
2023/05/27 05:51:30;;;;;;;298.23;180.98;;;;;;;;;;4973151;28;20049;-72
2023/05/27 05:53:59;;;;;;;364.15;180.75;;;;;;;;;;4955180;28;20093;-70
2023/05/27 05:56:27;;;;;;;259.25;240.38;;;;;;;;;;4973813;28;20049;-69
2023/05/27 05:58:54;;;;;;;217.93;199.63;;;;;;;;;;4972125;28;20035;-69
2023/05/27 06:01:23;;;;;;;207.55;191.68;;;;;;;;;;4955953;28;20047;-68
2023/05/27 06:03:51;;;;;;;223.23;186.68;;;;;;;;;;4970196;28;20062;-70
2023/05/27 06:06:29;;;;;;;205.30;186.98;;;;;;;;;;4952902;28;20080;-69
2023/05/27 06:09:14;;;;;;;214.00;195.10;;;;;;;;;;4971076;28;20177;-70
2023/05/27 06:11:41;;;;;;;216.18;198.57;;;;;;;;;;4971524;28;20051;-68
2023/05/27 06:14:08;;;;;;;324.58;222.65;;;;;;;;;;4971984;28;20047;-69
2023/05/27 06:16:35;;;;;;;227.98;209.43;;;;;;;;;;4981025;28;20407;-68
2023/05/27 06:19:02;;;;;;;228.25;208.77;;;;;;;;;;4974735;28;20507;-68
2023/05/27 06:21:32;;;;;;;209.77;193.68;;;;;;;;;;4958863;28;20857;-71
2023/05/27 06:24:19;;;;;;;201.60;184.27;;;;;;;;;;4960845;28;20093;-72
2023/05/27 06:26:51;;;;;;;196.40;182.70;;;;;;;;;;4971901;28;20147;-68
2023/05/27 06:29:18;;;;;;;198.85;183.55;;;;;;;;;;4974883;28;20062;-68
2023/05/27 06:31:46;;;;;;;212.48;194.98;;;;;;;;;;4954697;28;20066;-72
2023/05/27 06:34:15;;;;;;;212.25;194.70;;;;;;;;;;4974760;28;20141;-70
2023/05/27 06:36:42;;;;;;;216.50;198.45;;;;;;;;;;4974639;28;20049;-70
2023/05/27 06:39:08;;;;;;;216.70;197.07;;;;;;;;;;4973803;28;20055;-72
2023/05/27 06:41:36;;;;;;;222.20;206.40;;;;;;;;;;4973281;28;20058;-75
2023/05/27 06:44:21;;;;;;;370.48;213.63;;;;;;;;;;4976224;28;20129;-69
2023/05/27 06:47:11;;;;;;;237.05;218.48;;;;;;;;;;4975518;28;20054;-70
2023/05/27 06:49:38;;;;;;;247.93;228.30;;;;;;;;;;4974581;28;20748;-69
2023/05/27 06:52:06;;;;;;;247.05;228.23;;;;;;;;;;4960509;28;20054;-68
2023/05/27 06:54:54;;;;;;;234.60;215.27;;;;;;;;;;4974562;28;20043;-67
2023/05/27 06:57:39;;;;;;;226.90;207.10;;;;;;;;;;4975111;28;20072;-69
2023/05/27 07:00:17;;;;;;;233.35;213.75;;;;;;;;;;4972763;28;20093;-71
2023/05/27 07:03:01;;;;;;;241.07;218.93;;;;;;;;;;4954994;28;20047;-69
2023/05/27 07:05:28;;;;;;;245.10;224.73;;;;;;;;;;4956071;28;20200;-70
2023/05/27 07:07:54;;;;;;;230.73;212.90;;;;;;;;;;4974650;28;20061;-68
2023/05/27 07:10:21;;;;;;;204.70;189.98;;;;;;;;;;4970465;28;20046;-68
2023/05/27 07:12:47;;;;;;;209.82;193.98;;;;;;;;;;4958366;28;20630;-67
2023/05/27 07:15:33;;;;;;;226.57;208.20;;;;;;;;;;4976083;28;20054;-68
2023/05/27 07:18:00;;;;;;;223.02;205.60;;;;;;;;;;4975559;28;20054;-69
2023/05/27 07:20:27;;;;;;;222.55;204.18;;;;;;;;;;4979151;28;20492;-68
2023/05/27 07:22:53;;;;;;;229.05;211.98;;;;;;;;;;4974057;28;20480;-66
2023/05/27 07:25:21;;;;;;;257.80;225.55;;;;;;;;;;4976570;28;20058;-67
2023/05/27 07:27:47;;;;;;;243.07;225.27;;;;;;;;;;4979144;28;20070;-68
2023/05/27 07:30:15;;;;;;;288.83;227.45;;;;;;;;;;4982111;28;20047;-70
2023/05/27 07:32:54;;;;;;;230.23;212.05;;;;;;;;;;4971127;28;20111;-66
2023/05/27 07:35:21;;;;;;;237.55;218.15;;;;;;;;;;4978432;28;20061;-69
2023/05/27 07:37:48;;;;;;;232.90;212.43;;;;;;;;;;4979011;28;20142;-65
2023/05/27 07:40:14;;;;;;;239.90;219.13;;;;;;;;;;4979254;28;20058;-68
2023/05/27 07:42:41;;;;;;;229.05;211.43;;;;;;;;;;4977634;28;20053;-65
2023/05/27 07:45:08;;;;;;;390.23;233.82;;;;;;;;;;4975377;28;20447;-64
2023/05/27 07:47:35;;;;;;;241.07;219.95;;;;;;;;;;4960013;28;20081;-67
2023/05/27 07:50:03;;;;;;;235.20;218.00;;;;;;;;;;4974436;28;20399;-63
2023/05/27 07:52:36;;;;;;;255.20;219.18;;;;;;;;;;4972788;28;20046;-70
2023/05/27 07:55:12;;;;;;;228.95;212.52;;;;;;;;;;4961289;28;20042;-67
2023/05/27 07:57:40;;;;;;;404.95;226.52;;;;;;;;;;4973328;28;20065;-68
2023/05/27 08:00:07;;;;;;;212.68;193.50;;;;;;;;;;4974732;28;20464;-67
2023/05/27 08:02:51;;;;;;;222.32;204.52;;;;;;;;;;4975546;28;20097;-68
2023/05/27 08:05:20;;;;;;;431.98;403.02;;;;;;;;;;4973749;28;20099;-65
2023/05/27 08:08:22;;;;;;;508.38;473.95;;;;;;;;;;4953400;29;20153;-69
2023/05/27 08:11:11;;;;;;;85.30;77.00;;;;;;;;;;4951837;29;20604;-64
2023/05/27 08:13:58;;;;;;;65.53;58.47;;;;;;;;;;4942413;29;20051;-63
2023/05/27 08:16:49;;;;;;;64.45;58.08;;;;;;;;;;4936351;29;20058;-65
2023/05/27 08:19:28;;;;;;;126.65;113.53;;;;;;;;;;4952519;29;20129;-65
2023/05/27 08:22:08;;;;;;;171.73;158.05;;;;;;;;;;4962486;28;20141;-64
2023/05/27 08:25:03;;;;;;;229.25;209.68;;;;;;;;;;4975470;28;20056;-66
2023/05/27 08:27:46;;;;;;;382.42;352.83;;;;;;;;;;4975280;28;20506;-68
2023/05/27 08:30:20;;;;;;;159.55;146.73;;;;;;;;;;4980181;28;20054;-66
2023/05/27 08:32:53;;;;;;;136.88;124.78;;;;;;;;;;4972882;28;20090;-66
2023/05/27 08:35:20;;;;;;;136.05;125.70;;;;;;;;;;4975496;28;20064;-66
2023/05/27 08:37:46;;;;;;;139.93;126.13;;;;;;;;;;4975658;28;20051;-73
2023/05/27 08:40:14;;;;;;;198.13;90.13;;;;;;;;;;4975437;28;20416;-68
2023/05/27 08:42:46;;;;;;;132.07;97.95;;;;;;;;;;4976112;28;20051;-68
2023/05/27 08:45:13;;;;;;;116.93;90.63;;;;;;;;;;4958687;28;20456;-67
2023/05/27 08:47:40;;;;;;;100.28;77.38;;;;;;;;;;4973995;28;20081;-67
2023/05/27 08:50:11;;;;;;;102.80;92.53;;;;;;;;;;4976676;28;20050;-68
2023/05/27 08:52:46;;;;;;;102.68;92.38;;;;;;;;;;4956885;28;20074;-68
2023/05/27 08:55:19;;;;;;;106.35;96.30;;;;;;;;;;4976141;28;20138;-68
2023/05/27 08:57:49;;;;;;;114.65;103.43;;;;;;;;;;4976680;28;20046;-69
2023/05/27 09:00:17;;;;;;;119.10;107.03;;;;;;;;;;4975882;28;20094;-70
2023/05/27 09:02:46;;;;;;;141.35;128.90;;;;;;;;;;4958021;28;20047;-71
2023/05/27 09:05:13;;;;;;;43.95;4.07;;;;;;;;;;4977398;28;20043;-70
2023/05/27 09:07:40;;;;;;;33.30;3.45;;;;;;;;;;4977232;28;20046;-70
2023/05/27 09:10:07;;;;;;;34.83;3.50;;;;;;;;;;4960055;28;20452;-73
2023/05/27 09:12:35;;;;;;;30.23;3.13;;;;;;;;;;4976045;28;20069;-71
2023/05/27 09:15:03;;;;;;;55.50;4.72;;;;;;;;;;4972858;28;20474;-71
2023/05/27 09:17:30;;;;;;;43.15;3.67;;;;;;;;;;4975883;28;20046;-71
2023/05/27 09:19:56;;;;;;;75.90;5.40;;;;;;;;;;4977320;28;20109;-71
2023/05/27 09:22:24;;;;;;;21.25;2.92;;;;;;;;;;4975381;28;20047;-69
2023/05/27 09:24:54;;;;;;;82.80;6.72;;;;;;;;;;4975903;28;20050;-72
2023/05/27 09:27:27;;;;;;;37.55;3.63;;;;;;;;;;4976159;28;20061;-70
2023/05/27 09:29:55;;;;;;;50.65;3.70;;;;;;;;;;4974158;28;20077;-73
2023/05/27 09:32:26;;;;;;;78.00;6.03;;;;;;;;;;4975172;28;20047;-72
2023/05/27 09:34:54;;;;;;;33.00;3.33;;;;;;;;;;4959341;28;20042;-69
2023/05/27 09:37:24;;;;;;;39.65;3.58;;;;;;;;;;4959563;28;20065;-73
2023/05/27 09:39:51;;;;;;;19.98;2.40;;;;;;;;;;4976728;28;20042;-73
2023/05/27 09:42:19;;;;;;;30.05;3.03;;;;;;;;;;4974110;28;20077;-73
2023/05/27 09:44:48;;;;;;;47.13;4.45;;;;;;;;;;4974389;28;20043;-71
2023/05/27 09:47:16;;;;;;;56.92;5.15;;;;;;;;;;4957212;28;20105;-71
2023/05/27 09:49:42;;;;;;;64.25;5.38;;;;;;;;;;4973377;28;20377;-74
2023/05/27 09:52:11;;;;;;;55.92;4.63;;;;;;;;;;4973146;28;20034;-72
2023/05/27 09:54:38;;;;;;;47.15;4.15;;;;;;;;;;4958702;28;20046;-74
2023/05/27 09:57:06;;;;;;;90.68;8.00;;;;;;;;;;4955890;28;20133;-71
2023/05/27 09:59:33;;;;;;;40.97;3.78;;;;;;;;;;4971573;28;20051;-72
2023/05/27 10:02:01;;;;;;;55.85;5.03;;;;;;;;;;4952939;28;20038;-64
2023/05/27 10:04:28;;;;;;;50.60;4.93;;;;;;;;;;4954465;28;20051;-65
2023/05/27 10:06:56;;;;;;;13.35;1.95;;;;;;;;;;4957722;28;20746;-65
2023/05/27 10:09:23;;;;;;;713.58;657.70;;;;;;;;;;4974548;28;20046;-68
2023/05/27 10:11:49;;;;;;;226.18;206.30;;;;;;;;;;4955184;28;20057;-66
2023/05/27 10:14:16;;;;;;;49.92;5.10;;;;;;;;;;4975248;28;20049;-75
2023/05/27 10:16:55;;;;;;;36.38;3.55;;;;;;;;;;4971315;28;20044;-70
2023/05/27 10:19:22;;;;;;;449.85;411.70;;;;;;;;;;4967187;28;20042;-64
2023/05/27 10:21:52;;;;;;;145.57;130.70;;;;;;;;;;4958180;28;20142;-66
2023/05/27 10:24:20;;;;;;;132.98;120.18;;;;;;;;;;4972357;28;20126;-65
2023/05/27 10:26:48;;;;;;;122.68;109.82;;;;;;;;;;4955271;28;20110;-66
2023/05/27 10:29:17;;;;;;;119.00;106.47;;;;;;;;;;4962989;28;20412;-65
2023/05/27 10:31:51;;;;;;;134.38;120.15;;;;;;;;;;4956860;28;20039;-66
2023/05/27 10:34:19;;;;;;;396.05;362.25;;;;;;;;;;4957863;28;20408;-66
2023/05/27 10:36:46;;;;;;;476.08;439.15;;;;;;;;;;4973492;28;20492;-73
2023/05/27 10:39:16;;;;;;;300.50;275.35;;;;;;;;;;4973002;28;20496;-68
2023/05/27 10:41:43;;;;;;;183.45;168.85;;;;;;;;;;4971034;28;20096;-64
2023/05/27 10:44:10;;;;;;;164.48;150.13;;;;;;;;;;4973266;28;20085;-66
2023/05/27 10:46:38;;;;;;;162.80;146.75;;;;;;;;;;4969871;28;20404;-62
2023/05/27 10:49:13;;;;;;;157.55;140.85;;;;;;;;;;4962710;28;20163;-67
2023/05/27 10:51:41;;;;;;;137.35;123.38;;;;;;;;;;4974645;28;20066;-65
2023/05/27 10:54:08;;;;;;;149.00;126.70;;;;;;;;;;4973969;28;20127;-64
2023/05/27 10:56:47;;;;;;;140.02;128.07;;;;;;;;;;4960356;28;20043;-67
2023/05/27 10:59:19;;;;;;;727.10;669.47;;;;;;;;;;4978549;28;20113;-70
2023/05/27 11:01:46;;;;;;;705.47;648.80;;;;;;;;;;4976797;28;20051;-70
2023/05/27 11:04:14;;;;;;;689.72;635.75;;;;;;;;;;4977044;28;20039;-70
2023/05/27 11:06:40;;;;;;;714.72;655.28;;;;;;;;;;4976864;28;20046;-68
2023/05/27 11:09:08;;;;;;;691.38;635.78;;;;;;;;;;4975201;28;20046;-70
2023/05/27 11:11:36;;;;;;;673.03;620.58;;;;;;;;;;4971785;28;20061;-71
2023/05/27 11:14:03;;;;;;;668.00;616.42;;;;;;;;;;4985777;28;20058;-70
2023/05/27 11:16:29;;;;;;;689.53;635.25;;;;;;;;;;4975129;28;20051;-70
2023/05/27 11:18:56;;;;;;;682.78;630.28;;;;;;;;;;4960768;28;20052;-70
2023/05/27 11:21:23;;;;;;;689.17;614.75;;;;;;;;;;4975572;28;20077;-70
2023/05/27 11:23:50;;;;;;;637.50;586.88;;;;;;;;;;4974507;28;20047;-70
2023/05/27 11:26:17;;;;;;;639.58;589.67;;;;;;;;;;4977824;28;20078;-70
2023/05/27 11:28:47;;;;;;;632.65;582.33;;;;;;;;;;4976641;28;20042;-70
2023/05/27 11:31:15;;;;;;;606.55;557.00;;;;;;;;;;4977038;28;20073;-70
2023/05/27 11:33:43;;;;;;;560.03;515.55;;;;;;;;;;4976791;28;20104;-67
2023/05/27 11:36:14;;;;;;;555.28;503.95;;;;;;;;;;4971351;28;20039;-65
2023/05/27 11:38:47;;;;;;;541.53;501.13;;;;;;;;;;4971867;28;20105;-64
2023/05/27 11:41:17;;;;;;;544.92;502.02;;;;;;;;;;4977711;28;20047;-65
2023/05/27 11:43:48;;;;;;;525.88;486.65;;;;;;;;;;4976619;28;20047;-71
2023/05/27 11:46:15;;;;;;;543.83;502.08;;;;;;;;;;4976107;28;20055;-64
2023/05/27 11:48:42;;;;;;;527.47;488.67;;;;;;;;;;4977828;28;20038;-65
2023/05/27 11:51:10;;;;;;;563.22;516.50;;;;;;;;;;4974359;28;20050;-64
2023/05/27 11:53:41;;;;;;;542.80;502.10;;;;;;;;;;4975707;28;20054;-69
2023/05/27 11:56:07;;;;;;;546.72;504.38;;;;;;;;;;4956579;28;20051;-65
2023/05/27 11:58:34;;;;;;;536.95;495.88;;;;;;;;;;4969353;28;20043;-64
2023/05/27 12:01:01;;;;;;;518.80;480.17;;;;;;;;;;4977689;28;20492;-66
2023/05/27 12:03:27;;;;;;;548.20;504.55;;;;;;;;;;4975486;28;20053;-65
2023/05/27 12:05:54;;;;;;;537.03;496.52;;;;;;;;;;4956739;28;20138;-65
2023/05/27 12:08:21;;;;;;;538.08;497.27;;;;;;;;;;4956741;28;20042;-65
2023/05/27 12:10:53;;;;;;;532.03;493.10;;;;;;;;;;4969159;28;20043;-64
2023/05/27 12:13:23;;;;;;;557.47;508.95;;;;;;;;;;4968431;28;20623;-64
2023/05/27 12:15:50;;;;;;;549.22;507.08;;;;;;;;;;4971885;28;20069;-67
2023/05/27 12:18:18;;;;;;;560.13;510.13;;;;;;;;;;4973164;28;20043;-66
2023/05/27 12:20:45;;;;;;;563.42;515.47;;;;;;;;;;4973215;28;20070;-65
2023/05/27 12:23:12;;;;;;;558.25;513.20;;;;;;;;;;4974898;28;20500;-65
2023/05/27 12:25:38;;;;;;;563.00;517.25;;;;;;;;;;4959268;28;20066;-68
2023/05/27 12:28:06;;;;;;;564.72;517.17;;;;;;;;;;4975025;28;20046;-64
2023/05/27 12:30:33;;;;;;;539.20;497.48;;;;;;;;;;4959396;28;20046;-65
2023/05/27 12:33:00;;;;;;;532.92;494.17;;;;;;;;;;4972047;28;20085;-66
2023/05/27 12:35:27;;;;;;;564.17;517.65;;;;;;;;;;4976233;28;20098;-69
2023/05/27 12:37:54;;;;;;;545.53;504.55;;;;;;;;;;4976852;28;20042;-66
2023/05/27 12:40:20;;;;;;;513.63;473.45;;;;;;;;;;4974106;28;20063;-64
2023/05/27 12:42:47;;;;;;;226.93;198.68;;;;;;;;;;4976271;28;20412;-65
2023/05/27 12:45:14;;;;;;;202.23;181.10;;;;;;;;;;4974135;28;20038;-66
2023/05/27 12:47:41;;;;;;;192.82;175.63;;;;;;;;;;4975122;28;20057;-65
2023/05/27 12:50:08;;;;;;;215.15;193.20;;;;;;;;;;4958300;28;20050;-68
2023/05/27 12:52:38;;;;;;;221.98;203.50;;;;;;;;;;4958225;28;20401;-69
2023/05/27 12:55:05;;;;;;;220.75;201.38;;;;;;;;;;4955813;28;20059;-67
2023/05/27 12:57:31;;;;;;;224.93;202.13;;;;;;;;;;4959447;28;20129;-67
2023/05/27 12:59:58;;;;;;;234.50;214.98;;;;;;;;;;4972260;28;20042;-67
2023/05/27 13:02:25;;;;;;;219.38;202.73;;;;;;;;;;4976468;28;20099;-68
2023/05/27 13:04:51;;;;;;;232.77;212.52;;;;;;;;;;4974140;28;20051;-66
2023/05/27 13:07:18;;;;;;;216.73;199.50;;;;;;;;;;4975994;28;20046;-67
2023/05/27 13:09:45;;;;;;;211.25;194.52;;;;;;;;;;4975343;28;20046;-66
2023/05/27 13:12:11;;;;;;;232.27;208.00;;;;;;;;;;4970066;28;20463;-66
2023/05/27 13:14:38;;;;;;;226.77;202.52;;;;;;;;;;4974521;28;20105;-67
2023/05/27 13:17:06;;;;;;;230.93;207.95;;;;;;;;;;4975649;28;20046;-65
2023/05/27 13:19:32;;;;;;;223.82;203.75;;;;;;;;;;4958355;28;20053;-69
2023/05/27 13:21:59;;;;;;;224.45;208.90;;;;;;;;;;4975322;28;20435;-66
2023/05/27 13:24:26;;;;;;;222.77;203.70;;;;;;;;;;4973516;28;20121;-67
2023/05/27 13:26:53;;;;;;;236.15;215.25;;;;;;;;;;4972587;28;20051;-66
2023/05/27 13:29:19;;;;;;;236.50;215.90;;;;;;;;;;4957428;28;20066;-66
2023/05/27 13:31:46;;;;;;;230.25;212.43;;;;;;;;;;4975118;28;20125;-65
2023/05/27 13:34:13;;;;;;;238.02;216.77;;;;;;;;;;4971456;28;20051;-68
2023/05/27 13:36:39;;;;;;;237.93;216.23;;;;;;;;;;4973187;28;20130;-65
2023/05/27 13:39:06;;;;;;;238.55;219.07;;;;;;;;;;4971653;28;20043;-70
2023/05/27 13:41:32;;;;;;;235.52;214.60;;;;;;;;;;4974595;28;20054;-67
2023/05/27 13:43:59;;;;;;;243.80;222.93;;;;;;;;;;4974729;28;20038;-69
2023/05/27 13:46:26;;;;;;;244.05;222.27;;;;;;;;;;4972786;28;20153;-67
2023/05/27 13:48:53;;;;;;;243.25;220.52;;;;;;;;;;4957140;28;20073;-70
2023/05/27 13:51:19;;;;;;;244.05;218.98;;;;;;;;;;4954716;28;20475;-66
2023/05/27 13:53:46;;;;;;;351.75;211.75;;;;;;;;;;4971689;28;20718;-68
2023/05/27 13:56:13;;;;;;;226.43;206.98;;;;;;;;;;4974547;28;20050;-66
2023/05/27 13:58:41;;;;;;;239.85;215.70;;;;;;;;;;4972803;28;20075;-67
2023/05/27 14:01:07;;;;;;;253.07;206.90;;;;;;;;;;4974469;28;20043;-70
2023/05/27 14:03:34;;;;;;;226.32;207.63;;;;;;;;;;4974186;28;20468;-68
2023/05/27 14:06:01;;;;;;;231.57;211.63;;;;;;;;;;4970553;28;20749;-68
2023/05/27 14:08:27;;;;;;;238.40;216.38;;;;;;;;;;4973846;28;20126;-66
2023/05/27 14:10:54;;;;;;;225.55;207.93;;;;;;;;;;4974507;28;20048;-66
2023/05/27 14:13:20;;;;;;;228.80;206.50;;;;;;;;;;4965722;28;20412;-66
2023/05/27 14:15:47;;;;;;;222.20;203.20;;;;;;;;;;4973805;28;20559;-66